Time;durP1;ratioP1;P1;durP2;ratioP2;P2;SDS_P1;SDS_P2;PMS_P1;PMS_P2;Temp;Humidity;BMP_temperature;BMP_pressure;BME280_temperature;BME280_humidity;BME280_pressure;Samples;Min_cycle;Max_cycle;Signal;HPM_P1;HPM_P2
2022/12/13 00:00:04;;;;;;;18.90;8.30;;;;;;;5.20;73.15;98656.70;24542;1327;3025642;-67
2022/12/13 00:02:41;;;;;;;20.60;9.70;;;;;;;5.03;73.85;98660.02;24532;1334;3050985;-68
2022/12/13 00:05:11;;;;;;;19.60;9.00;;;;;;;5.01;74.13;98662.00;24555;1334;3026569;-68
2022/12/13 00:07:41;;;;;;;22.20;9.00;;;;;;;4.90;74.64;98661.51;24509;1333;3068021;-66
2022/12/13 00:10:10;;;;;;;23.10;10.70;;;;;;;4.73;75.76;98665.15;24597;1330;3026128;-67
2022/12/13 00:12:40;;;;;;;27.80;10.50;;;;;;;4.66;75.66;98666.34;24573;1330;3049851;-66
2022/12/13 00:15:09;;;;;;;25.40;12.60;;;;;;;4.64;76.11;98670.10;24495;1334;3027701;-66
2022/12/13 00:17:38;;;;;;;30.90;13.70;;;;;;;4.50;76.22;98669.23;24529;1324;3052166;-67
2022/12/13 00:20:08;;;;;;;35.40;16.00;;;;;;;4.33;76.94;98675.90;24536;1326;3026024;-66
2022/12/13 00:22:37;;;;;;;38.50;16.60;;;;;;;4.20;77.30;98678.45;24561;1334;3051232;-68
2022/12/13 00:25:07;;;;;;;35.90;15.90;;;;;;;4.15;77.86;98681.45;24522;1327;3025568;-69
2022/12/13 00:27:36;;;;;;;28.10;12.20;;;;;;;4.20;78.01;98678.27;24464;1334;3053044;-68
2022/12/13 00:30:06;;;;;;;24.60;11.20;;;;;;;4.76;76.68;98676.61;24429;1336;3028184;-66
2022/12/13 00:32:35;;;;;;;31.40;13.00;;;;;;;5.29;74.79;98672.05;24572;1334;3026902;-66
2022/12/13 00:35:05;;;;;;;32.70;13.20;;;;;;;5.32;73.87;98668.44;24525;1323;3028225;-67
2022/12/13 00:37:34;;;;;;;35.40;14.70;;;;;;;5.20;74.29;98666.05;24600;1333;3052171;-68
2022/12/13 00:40:03;;;;;;;31.10;13.70;;;;;;;5.06;74.63;98665.58;24563;1331;3025822;-66
2022/12/13 00:42:33;;;;;;;36.30;15.30;;;;;;;4.84;74.84;98669.60;24531;1334;3052941;-67
2022/12/13 00:45:02;;;;;;;32.10;13.50;;;;;;;4.80;75.61;98671.02;24546;1324;3026287;-69
2022/12/13 00:47:32;;;;;;;31.40;14.20;;;;;;;4.61;75.75;98673.02;24530;1329;3026144;-68
2022/12/13 00:50:04;;;;;;;32.70;13.90;;;;;;;4.62;76.26;98672.60;24537;1334;3027056;-64
2022/12/13 00:52:33;;;;;;;30.20;13.20;;;;;;;4.45;76.54;98681.06;24571;1333;3050967;-66
2022/12/13 00:55:03;;;;;;;32.00;13.70;;;;;;;4.43;76.60;98686.55;24543;1326;3025816;-66
2022/12/13 00:57:32;;;;;;;33.90;13.50;;;;;;;4.43;76.49;98684.61;24565;1334;3053039;-65
2022/12/13 01:00:03;;;;;;;36.00;14.80;;;;;;;4.34;76.94;98680.34;24526;1333;3028753;-67
2022/12/13 01:02:32;;;;;;;32.50;14.40;;;;;;;4.23;77.99;98682.45;24648;1323;3026436;-66
2022/12/13 01:05:01;;;;;;;28.20;10.60;;;;;;;4.28;78.13;98680.81;24558;1324;3028588;-66
2022/12/13 01:07:31;;;;;;;22.10;9.70;;;;;;;4.83;76.71;98683.92;24508;1324;3051319;-68
2022/12/13 01:09:59;;;;;;;26.50;10.90;;;;;;;5.38;74.45;98680.62;24592;1324;3026623;-66
2022/12/13 01:12:28;;;;;;;29.70;12.30;;;;;;;5.46;73.13;98682.97;24545;1334;3051729;-65
2022/12/13 01:14:58;;;;;;;33.00;13.30;;;;;;;5.31;73.58;98684.46;24501;1333;3028693;-68
2022/12/13 01:17:29;;;;;;;31.70;12.60;;;;;;;5.11;74.03;98685.81;24522;1339;3027168;-66
2022/12/13 01:19:58;;;;;;;25.50;12.30;;;;;;;4.89;74.22;98689.85;24572;1326;3026059;-66
2022/12/13 01:22:27;;;;;;;32.20;13.70;;;;;;;4.65;74.57;98696.23;24515;1317;3028590;-63
2022/12/13 01:24:56;;;;;;;30.30;12.30;;;;;;;4.42;75.44;98694.41;24471;1337;3052750;-65
2022/12/13 01:27:25;;;;;;;30.10;12.50;;;;;;;4.36;76.14;98695.89;24521;1333;3028355;-64
2022/12/13 01:29:54;;;;;;;27.10;11.90;;;;;;;4.37;76.32;98698.59;24491;1329;3051619;-64
2022/12/13 01:32:23;;;;;;;26.80;12.30;;;;;;;4.33;76.16;98700.53;24482;1340;3026361;-65
2022/12/13 01:34:53;;;;;;;34.40;12.60;;;;;;;4.23;76.66;98701.34;24515;1334;3028650;-66
2022/12/13 01:37:22;;;;;;;32.80;11.40;;;;;;;4.20;77.03;98706.00;24442;1337;3026171;-67
2022/12/13 01:39:53;;;;;;;27.00;11.80;;;;;;;4.10;76.37;98701.92;24531;1333;3052084;-63
2022/12/13 01:42:22;;;;;;;27.50;12.10;;;;;;;4.06;76.60;98702.32;24493;1323;3028056;-63
2022/12/13 01:44:54;;;;;;;27.00;12.10;;;;;;;4.01;76.95;98702.67;24484;1334;3051673;-68
2022/12/13 01:47:45;;;;;;;27.90;11.20;;;;;;;4.01;76.79;98701.81;24522;1334;3027037;-66
2022/12/13 01:50:17;;;;;;;28.60;12.90;;;;;;;3.84;77.26;98706.24;24553;1341;3050103;-64
2022/12/13 01:52:46;;;;;;;21.30;9.40;;;;;;;3.84;78.08;98705.73;24566;1333;3026288;-64
2022/12/13 01:55:16;;;;;;;18.60;7.10;;;;;;;4.42;76.51;98703.55;24506;1330;3028099;-64
2022/12/13 01:57:46;;;;;;;17.30;8.20;;;;;;;5.02;74.02;98703.96;24449;1334;3049768;-67
2022/12/13 02:00:16;;;;;;;22.20;8.90;;;;;;;5.11;72.61;98706.48;24524;1334;3027918;-65
2022/12/13 02:02:45;;;;;;;20.20;9.60;;;;;;;4.99;72.79;98704.13;24530;1334;3028372;-63
2022/12/13 02:05:33;;;;;;;20.50;9.80;;;;;;;4.85;73.24;98703.39;24609;1323;3028664;-67
2022/12/13 02:08:02;;;;;;;20.10;8.90;;;;;;;4.70;73.92;98704.67;24565;1334;3067761;-66
2022/12/13 02:10:31;;;;;;;19.80;8.70;;;;;;;4.56;74.29;98705.50;24486;1331;3026722;-65
2022/12/13 02:13:01;;;;;;;21.90;10.00;;;;;;;4.54;74.59;98697.62;24522;1333;3029785;-66
2022/12/13 02:15:39;;;;;;;19.90;9.10;;;;;;;4.41;74.66;98687.67;24541;1333;3068459;-64
2022/12/13 02:18:30;;;;;;;23.60;11.10;;;;;;;4.34;74.89;98681.42;24559;1337;3048269;-66
2022/12/13 02:21:11;;;;;;;23.30;10.40;;;;;;;4.06;75.55;98677.85;24511;1336;3056029;-67
2022/12/13 02:24:09;;;;;;;24.00;10.50;;;;;;;3.94;76.22;98676.52;24583;1337;3050742;-68
2022/12/13 02:27:26;;;;;;;22.00;9.30;;;;;;;3.88;76.04;98681.62;24578;1335;3054047;-67
2022/12/13 02:30:08;;;;;;;25.90;10.10;;;;;;;3.87;76.43;98677.18;24430;1340;3052672;-66
2022/12/13 02:32:55;;;;;;;20.70;9.90;;;;;;;3.80;76.37;98679.75;24557;1337;3053403;-70
2022/12/13 02:35:45;;;;;;;20.10;9.20;;;;;;;3.76;76.93;98686.17;24585;1333;3049726;-68
2022/12/13 02:38:33;;;;;;;18.20;9.30;;;;;;;3.74;76.75;98682.47;24527;1333;3068575;-69
2022/12/13 02:41:23;;;;;;;20.60;9.40;;;;;;;3.80;76.59;98683.03;24586;1334;3050787;-66
2022/12/13 02:44:05;;;;;;;14.50;7.40;;;;;;;3.84;76.43;98677.14;24538;1333;3056596;-67
2022/12/13 02:46:37;;;;;;;12.70;5.60;;;;;;;4.47;74.64;98679.58;24552;1330;3052645;-70
2022/12/13 02:49:06;;;;;;;14.20;8.10;;;;;;;5.12;73.10;98684.34;24566;1333;3026302;-66
2022/12/13 02:51:35;;;;;;;18.30;8.20;;;;;;;5.20;72.07;98681.86;24477;1327;3026104;-65
2022/12/13 02:54:05;;;;;;;18.20;8.70;;;;;;;5.09;72.08;98678.61;24515;1336;3052465;-67
2022/12/13 02:56:34;;;;;;;17.40;8.50;;;;;;;4.89;72.51;98682.55;24492;1334;3025786;-70
2022/12/13 02:59:09;;;;;;;21.10;9.90;;;;;;;4.73;73.25;98690.98;24563;1334;3028879;-69
2022/12/13 03:01:53;;;;;;;19.00;10.40;;;;;;;4.58;73.69;98694.11;24514;1334;3052742;-69
2022/12/13 03:08:07;;;;;;;23.20;10.80;;;;;;;4.31;75.17;98701.65;24478;1333;3069244;-66
2022/12/13 03:11:04;;;;;;;25.50;12.40;;;;;;;4.24;75.17;98697.14;24443;1333;3050359;-67
2022/12/13 03:13:53;;;;;;;25.60;11.90;;;;;;;4.22;75.27;98699.14;24533;1337;3056691;-67
2022/12/13 03:16:39;;;;;;;26.00;12.70;;;;;;;4.14;75.53;98698.30;24556;1327;3050849;-68
2022/12/13 03:19:09;;;;;;;27.00;12.50;;;;;;;4.03;75.94;98698.77;24553;1330;3053746;-65
2022/12/13 03:21:44;;;;;;;30.20;12.40;;;;;;;4.03;76.14;98703.14;24553;1336;3026266;-65
2022/12/13 03:24:16;;;;;;;26.70;11.90;;;;;;;4.02;76.19;98701.95;24532;1334;3051164;-67
2022/12/13 03:26:46;;;;;;;28.10;11.30;;;;;;;3.97;76.58;98699.42;24571;1334;3026570;-68
2022/12/13 03:29:16;;;;;;;28.80;12.90;;;;;;;3.92;76.88;98702.29;24528;1330;3027229;-65
2022/12/13 03:31:45;;;;;;;28.20;12.90;;;;;;;3.94;77.24;98700.44;24553;1324;3026541;-66
2022/12/13 03:34:14;;;;;;;27.10;11.40;;;;;;;3.92;77.29;98703.65;24597;1334;3026967;-69
2022/12/13 03:36:43;;;;;;;19.40;7.90;;;;;;;3.93;77.24;98702.72;24572;1334;3026245;-64
2022/12/13 03:39:13;;;;;;;15.90;7.70;;;;;;;4.47;75.79;98700.72;24462;1333;3049626;-64
2022/12/13 03:41:42;;;;;;;16.60;8.10;;;;;;;4.99;73.50;98695.61;24551;1330;3028903;-66
2022/12/13 03:44:12;;;;;;;17.90;9.60;;;;;;;5.19;72.70;98689.23;24468;1333;3068607;-67
2022/12/13 03:46:41;;;;;;;23.90;10.30;;;;;;;5.08;72.52;98679.73;24501;1335;3028329;-67
2022/12/13 03:49:10;;;;;;;15.60;8.40;;;;;;;4.94;73.04;98684.58;24566;1330;3028222;-67
2022/12/13 03:51:39;;;;;;;18.40;8.70;;;;;;;4.80;73.58;98683.86;24526;1340;3068444;-68
2022/12/13 03:54:08;;;;;;;20.90;10.00;;;;;;;4.58;74.24;98685.61;24505;1324;3026701;-67
2022/12/13 03:56:37;;;;;;;22.00;9.80;;;;;;;4.43;74.73;98678.55;24500;1341;3049183;-65
2022/12/13 03:59:06;;;;;;;21.20;10.10;;;;;;;4.34;75.31;98672.54;24436;1334;3025753;-68
2022/12/13 04:01:35;;;;;;;28.10;10.30;;;;;;;4.36;75.41;98668.84;24540;1340;3052155;-66
2022/12/13 04:04:04;;;;;;;23.80;11.30;;;;;;;4.33;75.54;98668.09;24583;1332;3026177;-70
2022/12/13 04:06:33;;;;;;;21.20;10.10;;;;;;;4.22;75.84;98667.41;24501;1333;3051299;-72
2022/12/13 04:09:02;;;;;;;28.70;11.10;;;;;;;4.15;75.93;98663.23;24498;1334;3028246;-69
2022/12/13 04:14:19;;;;;;;21.40;10.50;;;;;;;4.00;76.41;98663.43;24538;1334;3052083;-65
2022/12/13 04:16:50;;;;;;;25.50;10.40;;;;;;;3.87;76.56;98661.05;24557;1336;3028604;-65
2022/12/13 04:19:19;;;;;;;25.00;10.60;;;;;;;3.80;76.80;98655.46;24572;1337;3028967;-68
2022/12/13 04:21:48;;;;;;;30.30;9.90;;;;;;;3.77;76.77;98647.48;24554;1337;3027671;-66
2022/12/13 04:24:19;;;;;;;20.10;9.80;;;;;;;3.73;77.03;98637.65;24572;1332;3054355;-65
2022/12/13 04:26:50;;;;;;;22.60;9.30;;;;;;;3.76;77.02;98632.32;24548;1330;3026979;-65
2022/12/13 04:29:19;;;;;;;20.40;8.50;;;;;;;3.86;76.44;98625.92;24495;1333;3028035;-65
2022/12/13 04:31:48;;;;;;;18.20;8.50;;;;;;;3.77;76.35;98622.20;24557;1337;3027507;-65
2022/12/13 04:34:17;;;;;;;25.80;10.00;;;;;;;3.70;76.70;98624.27;24533;1337;3049977;-70
2022/12/13 04:36:46;;;;;;;18.50;7.60;;;;;;;3.58;77.12;98624.26;24571;1334;3027518;-67
2022/12/13 04:39:14;;;;;;;19.20;8.30;;;;;;;3.66;76.88;98618.90;24553;1334;3052780;-68
2022/12/13 04:41:45;;;;;;;14.80;7.00;;;;;;;3.73;77.43;98615.30;24552;1339;3026132;-70
2022/12/13 04:44:14;;;;;;;18.50;6.80;;;;;;;4.26;75.59;98609.33;24577;1322;3050971;-69
2022/12/13 04:46:43;;;;;;;18.60;7.40;;;;;;;4.85;73.81;98607.42;24540;1330;3027517;-71
2022/12/13 04:49:11;;;;;;;17.80;8.00;;;;;;;5.14;72.41;98605.61;24547;1340;3052163;-72
2022/12/13 04:51:40;;;;;;;20.20;8.20;;;;;;;5.16;72.17;98599.46;24527;1338;3026145;-71
2022/12/13 04:54:10;;;;;;;22.40;8.80;;;;;;;5.01;71.95;98588.08;24532;1330;3051470;-69
2022/12/13 04:56:39;;;;;;;24.60;9.40;;;;;;;4.77;72.16;98591.38;24528;1337;3027994;-67
2022/12/13 04:59:10;;;;;;;25.50;9.50;;;;;;;4.46;72.86;98598.45;24493;1334;3026516;-64
2022/12/13 05:01:39;;;;;;;27.40;9.70;;;;;;;4.32;73.82;98602.60;24543;1330;3027984;-66
2022/12/13 05:04:08;;;;;;;26.20;10.00;;;;;;;4.12;74.62;98595.61;24594;1327;3051064;-70
2022/12/13 05:06:37;;;;;;;24.80;10.20;;;;;;;4.05;74.65;98594.57;24552;1334;3029018;-71
2022/12/13 05:09:06;;;;;;;26.60;10.10;;;;;;;3.91;74.98;98603.02;24586;1323;3050945;-67
2022/12/13 05:11:36;;;;;;;23.60;10.40;;;;;;;3.81;75.61;98605.40;24594;1333;3027706;-66
2022/12/13 05:14:05;;;;;;;27.90;11.10;;;;;;;3.78;75.97;98607.61;24528;1332;3026619;-69
2022/12/13 05:16:35;;;;;;;27.40;10.00;;;;;;;3.85;76.01;98606.56;24501;1333;3051470;-66
2022/12/13 05:19:04;;;;;;;22.30;10.20;;;;;;;3.65;76.02;98607.85;24563;1343;3025417;-68
2022/12/13 05:21:33;;;;;;;24.00;10.40;;;;;;;3.65;76.59;98608.54;24524;1334;3056778;-69
2022/12/13 05:24:03;;;;;;;26.00;10.50;;;;;;;3.64;76.60;98607.38;24547;1330;3028591;-69
2022/12/13 05:26:32;;;;;;;23.90;10.90;;;;;;;3.65;76.84;98592.60;24561;1325;3027937;-69
2022/12/13 05:29:01;;;;;;;26.30;10.10;;;;;;;3.68;76.60;98581.54;24535;1327;3028339;-66
2022/12/13 05:31:30;;;;;;;26.90;10.70;;;;;;;3.77;76.60;98579.73;24535;1334;3052399;-67
2022/12/13 05:34:00;;;;;;;26.50;10.20;;;;;;;3.67;76.48;98581.23;24573;1330;3028473;-67
2022/12/13 05:36:30;;;;;;;22.80;10.00;;;;;;;3.70;76.79;98585.80;24564;1333;3057079;-67
2022/12/13 05:38:59;;;;;;;20.70;8.60;;;;;;;3.73;76.79;98581.35;24538;1334;3029640;-68
2022/12/13 05:41:31;;;;;;;18.60;6.50;;;;;;;4.20;75.62;98574.92;24584;1339;3026714;-65
2022/12/13 05:44:00;;;;;;;17.80;8.30;;;;;;;4.79;73.34;98560.73;24494;1331;3056146;-69
2022/12/13 05:46:29;;;;;;;23.30;9.20;;;;;;;4.88;72.68;98555.08;24504;1324;3028650;-69
2022/12/13 05:48:58;;;;;;;19.20;8.80;;;;;;;4.82;72.53;98551.21;24559;1338;3025729;-67
2022/12/13 05:51:27;;;;;;;17.60;7.80;;;;;;;4.61;73.20;98553.48;24500;1338;3056738;-69
2022/12/13 05:53:56;;;;;;;18.40;8.50;;;;;;;4.54;73.96;98562.68;24587;1330;3025069;-65
2022/12/13 05:56:25;;;;;;;20.70;9.00;;;;;;;4.42;73.78;98563.46;24558;1334;3049469;-64
2022/12/13 05:58:55;;;;;;;18.50;8.60;;;;;;;4.08;74.88;98564.42;24486;1334;3028095;-65
2022/12/13 06:01:50;;;;;;;18.30;8.10;;;;;;;4.01;75.54;98568.25;24439;1334;3051182;-65
2022/12/13 06:04:23;;;;;;;17.40;8.70;;;;;;;3.90;75.91;98580.20;24447;1326;3054710;-68
2022/12/13 06:06:53;;;;;;;18.20;8.60;;;;;;;3.74;76.71;98587.33;24462;1320;3028493;-67
2022/12/13 06:09:22;;;;;;;21.90;8.60;;;;;;;3.77;76.94;98588.58;24471;1334;3050951;-64
2022/12/13 06:11:51;;;;;;;21.60;8.50;;;;;;;3.74;76.92;98590.12;24511;1339;3026156;-64
2022/12/13 06:14:20;;;;;;;22.60;9.30;;;;;;;3.66;77.15;98588.05;24545;1323;3028691;-70
2022/12/13 06:16:52;;;;;;;22.10;8.20;;;;;;;3.61;77.72;98589.52;24495;1334;3050150;-70
2022/12/13 06:19:21;;;;;;;30.20;9.30;;;;;;;3.54;77.93;98591.36;24534;1335;3026652;-66
2022/12/13 06:21:51;;;;;;;20.30;8.10;;;;;;;3.57;78.14;98597.66;24539;1334;3027071;-68
2022/12/13 06:24:22;;;;;;;21.50;9.40;;;;;;;3.56;77.95;98594.92;24554;1338;3052053;-70
2022/12/13 06:26:52;;;;;;;17.60;7.00;;;;;;;3.58;78.36;98596.73;24517;1341;3027070;-70
2022/12/13 06:29:22;;;;;;;17.90;6.30;;;;;;;4.13;76.97;98589.31;24542;1339;3026329;-71
2022/12/13 06:31:53;;;;;;;22.30;7.10;;;;;;;4.68;74.74;98585.23;24549;1327;3028927;-69
2022/12/13 06:34:22;;;;;;;24.30;8.90;;;;;;;4.90;74.09;98590.39;24579;1334;3052629;-67
2022/12/13 06:36:51;;;;;;;21.10;8.80;;;;;;;4.74;73.95;98592.02;24537;1333;3025794;-68
2022/12/13 06:39:20;;;;;;;23.80;8.70;;;;;;;4.50;74.53;98595.14;24510;1333;3051270;-70
2022/12/13 06:41:49;;;;;;;29.80;9.70;;;;;;;4.42;75.01;98593.78;24520;1334;3025985;-66
2022/12/13 06:44:21;;;;;;;26.40;9.50;;;;;;;4.26;75.70;98598.06;24538;1332;3056035;-65
2022/12/13 06:46:50;;;;;;;30.60;10.40;;;;;;;4.18;76.23;98599.48;24613;1335;3028135;-69
2022/12/13 06:49:21;;;;;;;25.40;10.70;;;;;;;4.11;76.42;98600.35;24586;1342;3049382;-69
2022/12/13 06:51:50;;;;;;;29.70;10.10;;;;;;;4.07;76.62;98606.74;24509;1333;3027763;-69
2022/12/13 06:54:20;;;;;;;24.80;10.20;;;;;;;4.05;76.89;98612.39;24558;1337;3069050;-67
2022/12/13 06:56:49;;;;;;;26.80;10.00;;;;;;;3.96;77.33;98608.48;24546;1333;3028283;-67
2022/12/13 06:59:18;;;;;;;30.20;10.60;;;;;;;3.93;77.53;98603.44;24587;1333;3049138;-67
2022/12/13 07:01:49;;;;;;;30.30;11.10;;;;;;;3.91;77.90;98605.11;24484;1339;3026071;-71
2022/12/13 07:04:18;;;;;;;27.70;10.50;;;;;;;3.90;77.99;98605.67;24561;1333;3026469;-68
2022/12/13 07:06:49;;;;;;;25.60;9.60;;;;;;;3.92;77.96;98607.45;24508;1334;3049506;-69
2022/12/13 07:09:17;;;;;;;25.50;9.70;;;;;;;3.84;77.95;98608.51;24450;1326;3026826;-68
2022/12/13 07:11:47;;;;;;;34.10;11.50;;;;;;;3.85;78.22;98606.55;24502;1326;3027354;-67
2022/12/13 07:14:16;;;;;;;20.30;6.80;;;;;;;3.87;78.52;98600.59;24558;1326;3026345;-69
2022/12/13 07:16:45;;;;;;;16.40;6.60;;;;;;;4.45;77.11;98587.23;24522;1334;3068270;-64
2022/12/13 07:19:15;;;;;;;25.30;9.60;;;;;;;5.10;74.68;98584.29;24502;1325;3027416;-68
2022/12/13 07:21:44;;;;;;;26.00;9.60;;;;;;;5.27;73.81;98585.67;24592;1335;3049725;-71
2022/12/13 07:24:13;;;;;;;26.40;9.90;;;;;;;5.23;73.86;98580.17;24519;1331;3026748;-68
2022/12/13 07:26:42;;;;;;;32.10;11.00;;;;;;;5.14;74.25;98573.36;24427;1334;3026252;-73
2022/12/13 07:29:11;;;;;;;26.50;9.90;;;;;;;5.04;74.51;98581.64;24513;1334;3049868;-71
2022/12/13 07:31:40;;;;;;;26.20;10.00;;;;;;;5.03;74.22;98585.20;24548;1341;3026069;-71
2022/12/13 07:34:09;;;;;;;27.70;10.10;;;;;;;4.85;74.81;98571.52;24630;1320;3051935;-70
2022/12/13 07:36:38;;;;;;;25.90;10.70;;;;;;;4.84;75.19;98565.31;24573;1337;3025814;-69
2022/12/13 07:39:08;;;;;;;27.40;9.80;;;;;;;4.90;75.26;98560.16;24519;1333;3026299;-69
2022/12/13 07:41:37;;;;;;;25.10;9.80;;;;;;;4.87;74.80;98566.23;24553;1327;3028050;-71
2022/12/13 07:44:06;;;;;;;31.40;10.30;;;;;;;4.80;74.92;98577.66;24563;1327;3025738;-68
2022/12/13 07:46:37;;;;;;;31.80;11.10;;;;;;;4.71;75.31;98571.91;24471;1332;3026325;-65
2022/12/13 07:49:06;;;;;;;34.50;12.40;;;;;;;4.59;75.84;98562.98;24593;1333;3028377;-67
2022/12/13 07:51:35;;;;;;;27.70;11.70;;;;;;;4.57;75.96;98553.70;24589;1320;3055436;-71
2022/12/13 07:54:04;;;;;;;25.10;10.00;;;;;;;4.68;75.90;98540.14;24588;1326;3026795;-70
2022/12/13 07:56:34;;;;;;;24.50;10.70;;;;;;;4.69;75.43;98535.58;24580;1340;3048324;-69
2022/12/13 07:59:03;;;;;;;27.30;11.00;;;;;;;4.71;75.35;98524.88;24613;1327;3026661;-69
2022/12/13 08:01:33;;;;;;;25.00;11.30;;;;;;;4.58;76.14;98522.25;24503;1334;3028502;-71
2022/12/13 08:04:03;;;;;;;23.40;10.70;;;;;;;4.54;76.52;98516.23;24547;1336;3027098;-66
2022/12/13 08:06:36;;;;;;;26.00;10.40;;;;;;;4.58;76.39;98509.26;24515;1339;3056436;-67
2022/12/13 08:09:09;;;;;;;14.80;6.60;;;;;;;4.54;76.23;98512.92;24521;1336;3052494;-69
2022/12/13 08:11:39;;;;;;;13.30;6.00;;;;;;;5.17;74.61;98513.45;24544;1334;3025829;-68
2022/12/13 08:14:08;;;;;;;14.30;6.60;;;;;;;5.75;72.43;98516.36;24515;1333;3025986;-71
2022/12/13 08:17:03;;;;;;;21.40;8.80;;;;;;;5.97;71.56;98519.52;24592;1327;3052825;-71
2022/12/13 08:19:32;;;;;;;20.30;8.70;;;;;;;5.81;71.20;98522.49;24566;1336;3026321;-70
2022/12/13 08:22:01;;;;;;;19.20;8.60;;;;;;;5.64;71.77;98519.78;24501;1337;3051102;-70
2022/12/13 08:24:30;;;;;;;19.60;7.90;;;;;;;5.48;71.96;98517.16;24551;1334;3026409;-70
2022/12/13 08:27:07;;;;;;;16.00;7.60;;;;;;;5.32;72.88;98510.23;24606;1327;3026916;-70
2022/12/13 08:29:37;;;;;;;18.30;7.70;;;;;;;5.24;73.21;98508.77;24527;1326;3068953;-71
2022/12/13 08:32:09;;;;;;;18.30;8.10;;;;;;;5.14;73.88;98503.22;24517;1332;3025876;-69
2022/12/13 08:34:38;;;;;;;14.30;7.50;;;;;;;5.09;74.17;98497.73;24580;1333;3026912;-68
2022/12/13 08:37:08;;;;;;;16.30;7.60;;;;;;;5.13;74.20;98496.29;24551;1334;3025756;-72
2022/12/13 08:39:38;;;;;;;18.00;8.80;;;;;;;5.03;74.44;98498.06;24509;1329;3026153;-70
2022/12/13 08:42:15;;;;;;;16.10;8.30;;;;;;;5.03;74.80;98490.39;24558;1325;3057187;-73
2022/12/13 08:44:48;;;;;;;20.90;8.60;;;;;;;5.05;74.25;98476.59;24551;1333;3049407;-67
2022/12/13 08:47:20;;;;;;;16.30;7.90;;;;;;;5.03;74.57;98475.83;24491;1330;3026712;-69
2022/12/13 08:49:49;;;;;;;16.90;8.50;;;;;;;5.00;74.84;98478.63;24529;1327;3026398;-70
2022/12/13 08:52:20;;;;;;;20.70;9.40;;;;;;;4.97;75.05;98469.40;24567;1333;3027513;-70
2022/12/13 08:54:49;;;;;;;23.20;9.40;;;;;;;4.96;75.16;98459.20;24515;1334;3054121;-71
2022/12/13 08:57:50;;;;;;;17.70;8.50;;;;;;;5.02;75.37;98452.58;24571;1326;3051072;-70
2022/12/13 09:00:22;;;;;;;15.70;7.60;;;;;;;5.14;74.72;98443.46;24558;1327;3052209;-69
2022/12/13 09:02:51;;;;;;;13.00;7.50;;;;;;;5.25;74.49;98440.45;24489;1326;3025857;-71
2022/12/13 09:05:20;;;;;;;17.50;8.80;;;;;;;5.20;74.35;98437.75;24514;1329;3051021;-68
2022/12/13 09:07:54;;;;;;;19.50;8.50;;;;;;;5.22;74.28;98426.76;24508;1333;3026039;-70
2022/12/13 09:10:23;;;;;;;14.90;8.40;;;;;;;5.24;74.26;98421.44;24554;1333;3049893;-69
2022/12/13 09:13:18;;;;;;;17.60;8.30;;;;;;;5.24;73.88;98409.95;24541;1333;3069764;-70
2022/12/13 09:15:47;;;;;;;19.00;8.90;;;;;;;5.21;74.04;98405.25;24454;1333;3027197;-70
2022/12/13 09:18:16;;;;;;;19.80;9.60;;;;;;;5.21;73.94;98403.69;24663;1332;3026681;-68
2022/12/13 09:20:45;;;;;;;13.60;8.40;;;;;;;5.23;74.08;98401.19;24563;1333;3068094;-73
2022/12/13 09:23:40;;;;;;;16.60;8.10;;;;;;;5.28;74.02;98405.59;24520;1333;3049065;-72
2022/12/13 09:26:14;;;;;;;13.20;7.90;;;;;;;5.30;73.71;98394.20;24535;1327;3026186;-73
2022/12/13 09:28:43;;;;;;;15.40;8.40;;;;;;;5.29;73.91;98386.27;24498;1330;3051700;-72
2022/12/13 09:31:14;;;;;;;15.70;8.30;;;;;;;5.30;73.78;98381.66;24580;1328;3026286;-71
2022/12/13 09:33:43;;;;;;;15.50;8.50;;;;;;;5.31;73.75;98375.86;24502;1334;3055954;-70
2022/12/13 09:36:15;;;;;;;21.70;9.30;;;;;;;5.26;73.79;98371.81;24485;1326;3026137;-70
2022/12/13 09:38:47;;;;;;;17.50;8.90;;;;;;;5.21;74.18;98362.73;24556;1329;3053089;-70
2022/12/13 09:41:34;;;;;;;17.60;8.60;;;;;;;5.27;74.27;98348.70;24503;1326;3028391;-71
2022/12/13 09:44:09;;;;;;;16.90;8.00;;;;;;;5.31;73.62;98337.02;24477;1336;3052216;-69
2022/12/13 09:46:38;;;;;;;;;;;;;;;5.29;73.88;98341.10;24569;1329;3049807;-69
2022/12/13 09:49:13;;;;;;;15.70;7.90;;;;;;;5.20;73.58;98333.11;23840;1327;4309717;-69
2022/12/13 09:51:42;;;;;;;16.10;8.20;;;;;;;5.24;74.07;98321.93;24550;1336;3051925;-71
2022/12/13 09:54:20;;;;;;;16.10;7.90;;;;;;;5.32;74.00;98322.49;24496;1337;3027085;-71
2022/12/13 09:56:53;;;;;;;19.00;9.20;;;;;;;5.27;73.61;98320.92;24489;1327;3069398;-71
2022/12/13 09:59:31;;;;;;;17.90;9.50;;;;;;;5.25;73.70;98316.11;24558;1333;3049172;-72
2022/12/13 10:02:27;;;;;;;18.40;8.90;;;;;;;5.27;74.35;98307.36;24534;1336;3056500;-70
2022/12/13 10:05:13;;;;;;;18.00;9.20;;;;;;;5.31;73.89;98293.77;24584;1334;3051649;-71
2022/12/13 10:07:42;;;;;;;18.60;9.20;;;;;;;5.27;73.81;98277.64;24542;1343;3053407;-70
2022/12/13 10:10:13;;;;;;;19.10;9.20;;;;;;;5.19;74.08;98262.83;24507;1333;3028161;-70
2022/12/13 10:12:42;;;;;;;16.70;9.60;;;;;;;5.15;74.31;98254.42;24520;1321;3053262;-68
2022/12/13 10:15:12;;;;;;;15.50;8.60;;;;;;;5.11;74.39;98255.12;24494;1334;3028606;-68
2022/12/13 10:17:46;;;;;;;18.60;8.30;;;;;;;5.21;74.18;98244.29;24515;1327;3025428;-70
2022/12/13 10:20:20;;;;;;;19.60;9.10;;;;;;;5.22;73.88;98235.91;24540;1334;3052445;-71
2022/12/13 10:22:50;;;;;;;21.50;9.20;;;;;;;5.09;73.89;98223.14;24536;1335;3050266;-68
2022/12/13 10:25:53;;;;;;;19.10;8.80;;;;;;;5.07;74.20;98225.72;24523;1333;3026122;-73
2022/12/13 10:28:30;;;;;;;17.00;8.80;;;;;;;5.01;74.14;98217.04;24497;1337;3051901;-71
2022/12/13 10:31:03;;;;;;;18.10;9.20;;;;;;;4.95;74.69;98212.29;24566;1333;3048809;-72
2022/12/13 10:33:36;;;;;;;17.30;9.30;;;;;;;5.04;74.66;98210.02;24557;1336;3027986;-69
2022/12/13 10:36:14;;;;;;;14.80;6.10;;;;;;;5.12;74.38;98206.15;24628;1327;3026656;-72
2022/12/13 10:38:44;;;;;;;10.90;5.80;;;;;;;5.81;73.08;98199.09;24596;1333;3056774;-72
2022/12/13 10:41:38;;;;;;;11.70;7.10;;;;;;;6.23;70.79;98195.48;24564;1329;3027220;-67
2022/12/13 10:44:08;;;;;;;;;;;;;;;6.37;70.89;98194.93;24525;1337;3049713;-75
2022/12/13 10:46:38;;;;;;;16.40;7.00;;;;;;;6.26;70.77;98191.07;24531;1334;3024883;-68
2022/12/13 10:49:19;;;;;;;18.30;8.20;;;;;;;6.00;70.80;98185.57;24549;1330;3026845;-69
2022/12/13 10:51:50;;;;;;;22.50;9.20;;;;;;;5.70;71.73;98175.73;24572;1334;3052972;-71
2022/12/13 10:54:26;;;;;;;17.30;8.20;;;;;;;5.42;72.66;98167.36;24510;1342;3026516;-70
2022/12/13 10:56:59;;;;;;;17.00;9.60;;;;;;;5.34;73.39;98160.89;24588;1334;3051652;-71
2022/12/13 10:59:33;;;;;;;20.50;10.20;;;;;;;5.21;73.78;98153.86;24553;1340;3027906;-71
2022/12/13 11:02:34;;;;;;;20.60;10.80;;;;;;;5.07;74.04;98146.34;24605;1334;3068733;-71
2022/12/13 11:05:24;;;;;;;20.70;10.70;;;;;;;5.04;74.40;98144.82;24497;1343;3049950;-70
2022/12/13 11:07:56;;;;;;;17.90;10.60;;;;;;;4.85;74.91;98140.37;24548;1333;3055508;-70
2022/12/13 11:12:03;;;;;;;22.00;12.00;;;;;;;4.79;75.55;98126.15;30923;1327;3012993;-71
2022/12/13 11:14:33;;;;;;;21.40;10.60;;;;;;;4.68;75.47;98128.30;24698;1320;3025837;-71
2022/12/13 11:17:07;;;;;;;18.00;10.40;;;;;;;4.65;75.52;98135.95;24570;1328;3025780;-69
2022/12/13 11:19:56;;;;;;;18.20;11.10;;;;;;;4.55;75.89;98142.95;24646;1328;3057229;-68
2022/12/13 11:22:31;;;;;;;20.90;11.40;;;;;;;4.41;76.62;98149.45;24651;1328;3050972;-66
2022/12/13 11:25:09;;;;;;;21.10;11.70;;;;;;;4.25;76.88;98160.23;23983;1328;4397624;-65
2022/12/13 11:28:00;;;;;;;26.00;12.80;;;;;;;4.06;77.53;98161.83;24604;1328;3055874;-70
2022/12/13 11:30:38;;;;;;;16.90;8.90;;;;;;;3.79;78.78;98156.66;24611;1325;3051927;-65
2022/12/13 11:33:26;;;;;;;13.30;6.60;;;;;;;4.40;77.43;98146.02;24672;1332;3053074;-69
2022/12/13 11:36:01;;;;;;;18.20;9.30;;;;;;;5.15;74.74;98142.63;24645;1327;3050857;-70
2022/12/13 11:38:31;;;;;;;16.50;8.90;;;;;;;5.09;74.05;98141.20;24714;1324;3052545;-71
2022/12/13 11:41:16;;;;;;;19.50;8.90;;;;;;;5.04;73.87;98141.16;24635;1327;3028143;-68
2022/12/13 11:44:08;;;;;;;16.10;8.10;;;;;;;4.87;73.77;98150.49;24623;1330;3067137;-68
2022/12/13 11:46:53;;;;;;;13.80;7.10;;;;;;;4.63;74.02;98154.29;24695;1318;3050520;-66